Карта
Морски нива
Данни за вълнение
Данни за вълнение 1
Пункт Вятър (m/s) Порив (m/s) Посока Вятър (kn) Порив (kn) Температура Налягане Влажност Последно обновяване Видимост Последно обновяване (видимост)
0.9 1.3 320.4 1.75 2.53 2.8 1015.0 77.9 10/12/23 12:21 19238 10/12/23 12:21
1.1 1.8 352.0 2.14 3.5 3.2 1011.5 95.4 10/12/23 12:22 20000 10/12/23 12:22
5.6 7.5 192.0 10.89 14.58 4.3 992.4 90.3 10/12/23 12:22 20000 10/12/23 12:21
7.6 10.1 174.2 14.77 19.63 5.5 1015.6 66.8 10/12/23 12:22 20000 10/12/23 12:21
4.5 6.6 193.0 8.75 12.83 5.8 1019.3 65.7 10/12/23 12:22 20000 10/12/23 12:21
1.5 3.3 176.1 2.92 6.41 6.5 1014.2 64.9 10/12/23 12:21 20000 10/12/23 12:22
2.2 3.7 201.2 4.28 7.19 6.1 1014.7 60.8 10/12/23 12:22 N/A N/A
2.9 6 145.1 5.64 11.66 6.2 1013.8 63.2 10/12/23 12:22 N/A N/A
1.8 3.5 149.7 3.5 6.8 7.1 1014.6 65.0 10/12/23 12:21 20000 10/12/23 12:22
1.4 2.7 179.2 2.72 5.25 N/A N/A N/A 10/12/23 12:21 N/A N/A
2.8 3.6 193.5 5.44 7 6.0 1015.3 60.0 10/12/23 12:22 N/A N/A
3.8 5.1 193.3 7.39 9.91 6.2 1014.6 60.1 10/12/23 12:22 N/A N/A
2.9 4.6 211.0 5.64 8.94 6.9 1014.0 62.3 10/12/23 12:21 20000 10/12/23 12:22
3.0 4.2 206.6 5.83 8.16 6.7 1014.0 64.1 10/12/23 12:21 20000 10/12/23 12:21
3.2 4.2 210.3 6.22 8.16 5.5 1011.6 58.8 10/12/23 12:21 N/A N/A
4.9 7 201.4 9.52 13.61 5.1 990.3 81.0 10/12/23 12:22 20000 10/12/23 12:21
5.7 8 206.1 11.08 15.55 3.1 985.9 84.0 10/12/23 12:22 14862 10/12/23 12:21
3.2 4.6 275.9 6.22 8.94 4.2 1017.3 70.8 10/12/23 12:21 15003 10/12/23 12:22
1.0 2 205.8 1.94 3.89 3.7 1014.8 74.6 10/12/23 12:22 9110 10/12/23 12:21
1.5 2.7 214.7 2.92 5.25 3.3 1015.7 68.6 10/12/23 12:21 20000 10/12/23 12:21
1.1 2 243.0 2.14 3.89 3.7 1016.8 80.2 10/12/23 12:21 15202 10/12/23 12:21
1.6 3 186.2 3.11 5.83 5.6 991.3 87.4 10/12/23 12:22 20000 10/12/23 12:21
1.6 2.6 183.9 3.11 5.05 7.1 1013.3 70.1 10/12/23 12:22 20000 10/12/23 12:21